KHYR/HYR METAR and TAF weather

Enter ICAO airport designator
Station Type Date Time Source
KHYR METAR 2019/10/15 19:29 UTC NOAA

KHYR 151929Z AUTO 01011G16KT 10SM BKN011 OVC027 04/02 A2980 RMK AO2 RAE22 P0001 T00390022


Station Type Date Time Source
KHYR Decoded METAR 2019/10/15 19:29 UTC NOAA

HAYWARD MUNICIPAL AIRPORT, WI, United States (KHYR) 46-01N 91-27W 370M
Oct 15, 2019 - 03:29 PM EDT / 2019.10.15 1929 UTC
Wind: from the N (010 degrees) at 13 MPH (11 KT) gusting to 18 MPH (16 KT):0
Visibility: 10 mile(s):0
Sky conditions: overcast
Precipitation last hour: 0.01 inches
Temperature: 39.0 F (3.9 C)
Dew Point: 36.0 F (2.2 C)
Relative Humidity: 88%
Pressure (altimeter): 29.8 in. Hg (1009 hPa)
ob: KHYR 151929Z AUTO 01011G16KT 10SM BKN011 OVC027 04/02 A2980 RMK AO2 RAE22 P0001 T00390022
cycle: 19

Station Type Date Time Source
KHYR TAF 2019/10/15 18:39 UTC NOAA

TAF
AMD KHYR 151736Z 1518/1618 01010G16KT 6SM -SHRA OVC015
TEMPO 1518/1520 1 1/2SM +RA
FM152000 36007G15KT 5SM -SHRA OVC009
FM160300 35005KT P6SM VCSH OVC015

Example: see airport list